Time;durP1;ratioP1;P1;durP2;ratioP2;P2;SDS_P1;SDS_P2;PMS_P1;PMS_P2;Temp;Humidity;BMP_temperature;BMP_pressure;BME280_temperature;BME280_humidity;BME280_pressure;Samples;Min_cycle;Max_cycle;Signal;HPM_P1;HPM_P2
2021/04/07 00:01:21;;;;;;;;;;;22.80;42.40;;;;;;1616900;71;1137;-61
2021/04/07 00:03:22;;;;;;;;;;;22.90;42.30;;;;;;1610251;71;752;-62
2021/04/07 00:05:28;;;;;;;;;;;22.90;42.40;;;;;;1619737;71;787;-62
2021/04/07 00:07:30;;;;;;;;;;;22.80;42.30;;;;;;1612598;71;756;-62
2021/04/07 00:09:35;;;;;;;;;;;22.90;42.30;;;;;;1610813;71;1934;-63
2021/04/07 00:11:37;;;;;;;;;;;22.90;42.40;;;;;;1617226;71;810;-61
2021/04/07 00:13:39;;;;;;;;;;;22.80;42.10;;;;;;1612828;71;822;-63
2021/04/07 00:15:41;;;;;;;;;;;22.90;42.30;;;;;;1620195;71;697;-60
2021/04/07 00:17:42;;;;;;;;;;;22.80;42.30;;;;;;1620663;71;658;-62
2021/04/07 00:19:44;;;;;;;;;;;22.90;42.20;;;;;;1610444;71;1126;-62
2021/04/07 00:21:46;;;;;;;;;;;22.90;42.30;;;;;;1615903;71;754;-63
2021/04/07 00:23:48;;;;;;;;;;;22.90;42.40;;;;;;1610772;71;771;-62
2021/04/07 00:25:50;;;;;;;;;;;22.90;42.40;;;;;;1636067;71;744;-62
2021/04/07 00:27:56;;;;;;;;;;;22.90;42.50;;;;;;1628008;72;803;-62
2021/04/07 00:29:58;;;;;;;;;;;22.80;42.10;;;;;;1638021;71;1924;-62
2021/04/07 00:32:00;;;;;;;;;;;22.80;42.10;;;;;;1645348;71;756;-60
2021/04/07 00:34:02;;;;;;;;;;;22.80;41.90;;;;;;1634739;71;738;-62
2021/04/07 00:36:04;;;;;;;;;;;22.90;42.10;;;;;;1624244;71;814;-61
2021/04/07 00:38:06;;;;;;;;;;;22.80;42.00;;;;;;1631176;71;750;-63
2021/04/07 00:40:08;;;;;;;;;;;22.80;42.00;;;;;;1645660;71;1173;-61
2021/04/07 00:42:10;;;;;;;;;;;22.80;41.90;;;;;;1631057;71;966;-62
2021/04/07 00:44:12;;;;;;;;;;;22.80;42.10;;;;;;1625994;71;793;-64
2021/04/07 00:46:14;;;;;;;;;;;22.80;41.60;;;;;;1638134;71;821;-64
2021/04/07 00:48:15;;;;;;;;;;;22.80;41.90;;;;;;1627662;71;795;-62
2021/04/07 00:50:18;;;;;;;;;;;22.80;42.10;;;;;;1633594;71;1939;-62
2021/04/07 00:52:20;;;;;;;;;;;22.80;42.00;;;;;;1628823;71;755;-62
2021/04/07 00:54:22;;;;;;;;;;;22.90;42.20;;;;;;1635811;71;777;-62
2021/04/07 00:56:25;;;;;;;;;;;22.80;42.20;;;;;;1631741;71;776;-62
2021/04/07 00:58:26;;;;;;;;;;;22.90;42.30;;;;;;1633840;71;752;-62
2021/04/07 01:00:28;;;;;;;;;;;22.80;42.20;;;;;;1631138;71;1105;-61
2021/04/07 01:02:30;;;;;;;;;;;22.90;42.20;;;;;;1636852;71;778;-62
2021/04/07 01:04:32;;;;;;;;;;;22.90;42.00;;;;;;1628684;71;796;-62
2021/04/07 01:06:35;;;;;;;;;;;22.80;42.30;;;;;;1631304;71;769;-63
2021/04/07 01:08:36;;;;;;;;;;;22.90;42.30;;;;;;1624729;71;752;-61
2021/04/07 01:10:38;;;;;;;;;;;22.90;42.40;;;;;;1624954;71;1940;-62
2021/04/07 01:12:42;;;;;;;;;;;22.80;42.20;;;;;;1621149;71;796;-62
2021/04/07 01:14:44;;;;;;;;;;;22.90;42.40;;;;;;1625859;71;809;-63
2021/04/07 01:16:46;;;;;;;;;;;22.80;42.30;;;;;;1622377;71;700;-62
2021/04/07 01:18:48;;;;;;;;;;;22.80;42.40;;;;;;1620221;71;781;-61
2021/04/07 01:20:49;;;;;;;;;;;22.80;42.40;;;;;;1620638;71;1124;-63
2021/04/07 01:22:52;;;;;;;;;;;22.80;42.30;;;;;;1615854;71;814;-62
2021/04/07 01:24:54;;;;;;;;;;;22.70;42.30;;;;;;1621580;71;742;-62
2021/04/07 01:26:56;;;;;;;;;;;22.80;42.20;;;;;;1631754;71;802;-63
2021/04/07 01:28:58;;;;;;;;;;;22.80;42.40;;;;;;1622320;71;759;-60
2021/04/07 01:31:00;;;;;;;;;;;22.70;42.10;;;;;;1628693;71;1948;-61
2021/04/07 01:33:01;;;;;;;;;;;22.70;42.00;;;;;;1626552;71;768;-63
2021/04/07 01:35:04;;;;;;;;;;;22.80;42.20;;;;;;1625986;71;829;-64
2021/04/07 01:37:05;;;;;;;;;;;22.70;42.00;;;;;;1627128;71;790;-61
2021/04/07 01:39:07;;;;;;;;;;;22.70;42.20;;;;;;1638341;71;798;-62
2021/04/07 01:41:09;;;;;;;;;;;22.60;41.80;;;;;;1625182;71;1144;-60
2021/04/07 01:43:11;;;;;;;;;;;22.70;42.00;;;;;;1616622;71;814;-61
2021/04/07 01:45:13;;;;;;;;;;;22.80;42.20;;;;;;1629306;71;814;-61
2021/04/07 01:47:15;;;;;;;;;;;22.80;42.30;;;;;;1621064;71;812;-60
2021/04/07 01:49:17;;;;;;;;;;;22.80;42.30;;;;;;1630991;71;751;-59
2021/04/07 01:51:19;;;;;;;;;;;22.70;42.40;;;;;;1619351;71;1932;-60
2021/04/07 01:53:21;;;;;;;;;;;22.60;41.80;;;;;;1629793;71;773;-61
2021/04/07 01:55:23;;;;;;;;;;;22.60;42.20;;;;;;1621337;71;773;-61
2021/04/07 01:57:24;;;;;;;;;;;22.60;42.10;;;;;;1632058;71;762;-63
2021/04/07 01:59:28;;;;;;;;;;;22.70;42.40;;;;;;1628221;71;742;-63
2021/04/07 02:01:30;;;;;;;;;;;22.80;42.50;;;;;;1625560;71;1087;-63
2021/04/07 02:03:32;;;;;;;;;;;22.70;42.60;;;;;;1618515;71;782;-61
2021/04/07 02:05:34;;;;;;;;;;;22.60;41.90;;;;;;1630079;71;796;-61
2021/04/07 02:07:35;;;;;;;;;;;22.70;42.10;;;;;;1621812;71;754;-63
2021/04/07 02:09:37;;;;;;;;;;;22.60;42.00;;;;;;1627414;71;1164;-63
2021/04/07 02:11:40;;;;;;;;;;;22.60;42.10;;;;;;1622117;71;1960;-62
2021/04/07 02:13:42;;;;;;;;;;;22.60;42.00;;;;;;1628162;71;652;-63
2021/04/07 02:15:44;;;;;;;;;;;22.70;42.10;;;;;;1626427;71;701;-65
2021/04/07 02:17:46;;;;;;;;;;;22.70;42.40;;;;;;1621973;71;739;-63
2021/04/07 02:19:48;;;;;;;;;;;22.60;42.10;;;;;;1625608;71;1176;-62
2021/04/07 02:22:04;;;;;;;;;;;22.70;42.20;;;;;;1621246;71;806;-63
2021/04/07 02:24:06;;;;;;;;;;;22.60;42.30;;;;;;1627618;72;748;-63
2021/04/07 02:26:07;;;;;;;;;;;22.70;42.30;;;;;;1620762;71;755;-63
2021/04/07 02:28:09;;;;;;;;;;;22.70;42.10;;;;;;1629505;71;777;-64
2021/04/07 02:30:12;;;;;;;;;;;22.60;42.40;;;;;;1622751;71;1153;-62
2021/04/07 02:32:14;;;;;;;;;;;22.60;42.30;;;;;;1628932;71;1947;-61
2021/04/07 02:34:16;;;;;;;;;;;22.60;42.40;;;;;;1621331;71;793;-62
2021/04/07 02:36:18;;;;;;;;;;;22.60;42.10;;;;;;1627657;71;775;-64
2021/04/07 02:38:20;;;;;;;;;;;22.70;42.40;;;;;;1616444;71;757;-63
2021/04/07 02:40:22;;;;;;;;;;;22.50;41.70;;;;;;1627699;71;1212;-61
2021/04/07 02:42:24;;;;;;;;;;;22.50;42.10;;;;;;1618065;71;788;-62
2021/04/07 02:44:25;;;;;;;;;;;22.60;41.90;;;;;;1625030;71;781;-63
2021/04/07 02:46:27;;;;;;;;;;;22.60;41.80;;;;;;1625567;71;752;-62
2021/04/07 02:48:29;;;;;;;;;;;22.50;41.80;;;;;;1627569;71;800;-62
2021/04/07 02:50:31;;;;;;;;;;;22.50;41.60;;;;;;1618861;71;1929;-65
2021/04/07 02:52:33;;;;;;;;;;;22.50;41.70;;;;;;1628607;71;809;-63
2021/04/07 02:54:35;;;;;;;;;;;22.60;42.00;;;;;;1621383;71;823;-60
2021/04/07 02:56:37;;;;;;;;;;;22.60;42.20;;;;;;1618055;71;724;-62
2021/04/07 02:58:38;;;;;;;;;;;22.60;42.20;;;;;;1626857;71;759;-62
2021/04/07 03:00:40;;;;;;;;;;;22.60;42.00;;;;;;1622259;71;1134;-63
2021/04/07 03:02:42;;;;;;;;;;;22.60;42.20;;;;;;1628844;71;800;-62
2021/04/07 03:04:44;;;;;;;;;;;22.50;42.00;;;;;;1627757;71;666;-61
2021/04/07 03:06:46;;;;;;;;;;;22.60;42.10;;;;;;1629452;71;808;-62
2021/04/07 03:08:48;;;;;;;;;;;22.50;42.10;;;;;;1632003;71;672;-64
2021/04/07 03:10:50;;;;;;;;;;;22.50;41.90;;;;;;1624986;71;1941;-63
2021/04/07 03:12:52;;;;;;;;;;;22.60;42.00;;;;;;1626641;71;794;-60
2021/04/07 03:14:54;;;;;;;;;;;22.50;41.90;;;;;;1628741;71;798;-61
2021/04/07 03:16:56;;;;;;;;;;;22.50;42.10;;;;;;1622361;71;758;-62
2021/04/07 03:18:57;;;;;;;;;;;22.50;42.00;;;;;;1628578;71;733;-63
2021/04/07 03:20:59;;;;;;;;;;;22.50;41.80;;;;;;1634843;71;1173;-63
2021/04/07 03:23:01;;;;;;;;;;;22.50;41.80;;;;;;1637047;71;647;-63
2021/04/07 03:25:04;;;;;;;;;;;22.50;41.90;;;;;;1636266;72;716;-63
2021/04/07 03:27:06;;;;;;;;;;;22.50;41.90;;;;;;1630953;71;773;-64
2021/04/07 03:29:08;;;;;;;;;;;22.50;41.80;;;;;;1628601;71;734;-63
2021/04/07 03:31:10;;;;;;;;;;;22.50;41.80;;;;;;1637325;71;1946;-62
2021/04/07 03:33:12;;;;;;;;;;;22.50;42.00;;;;;;1631286;72;792;-63
2021/04/07 03:35:13;;;;;;;;;;;22.40;41.70;;;;;;1638033;71;815;-65
2021/04/07 03:37:15;;;;;;;;;;;22.50;42.00;;;;;;1623848;72;812;-63
2021/04/07 03:39:18;;;;;;;;;;;22.40;41.60;;;;;;1635815;71;756;-63
2021/04/07 03:41:20;;;;;;;;;;;22.50;42.10;;;;;;1628667;71;1129;-66
2021/04/07 03:43:22;;;;;;;;;;;22.40;42.00;;;;;;1636243;71;817;-64
2021/04/07 03:45:24;;;;;;;;;;;22.40;41.80;;;;;;1627884;71;745;-65
2021/04/07 03:47:26;;;;;;;;;;;22.40;41.90;;;;;;1636103;71;670;-65
2021/04/07 03:49:31;;;;;;;;;;;22.40;41.50;;;;;;1643205;72;667;-63
2021/04/07 03:51:31;;;;;;;;;;;22.50;41.90;;;;;;1635437;71;1931;-63
2021/04/07 03:53:33;;;;;;;;;;;22.40;41.80;;;;;;1636011;72;792;-62
2021/04/07 03:55:35;;;;;;;;;;;22.40;41.80;;;;;;1638461;71;632;-63
2021/04/07 03:57:37;;;;;;;;;;;22.40;41.80;;;;;;1631961;71;755;-63
2021/04/07 03:59:39;;;;;;;;;;;22.40;41.70;;;;;;1646109;71;1181;-63
2021/04/07 04:01:41;;;;;;;;;;;22.40;41.90;;;;;;1640411;69;2183;-63
2021/04/07 04:03:43;;;;;;;;;;;22.40;41.60;;;;;;1640155;71;812;-64
2021/04/07 04:05:45;;;;;;;;;;;22.40;41.50;;;;;;1641505;71;762;-64
2021/04/07 04:07:46;;;;;;;;;;;22.40;41.50;;;;;;1633188;71;806;-64
2021/04/07 04:09:48;;;;;;;;;;;22.40;41.50;;;;;;1639037;71;766;-63
2021/04/07 04:11:50;;;;;;;;;;;22.40;41.50;;;;;;1636548;71;1942;-61
2021/04/07 04:13:52;;;;;;;;;;;22.40;41.30;;;;;;1632854;72;754;-64
2021/04/07 04:15:54;;;;;;;;;;;22.40;41.50;;;;;;1629236;71;707;-65
2021/04/07 04:17:56;;;;;;;;;;;22.40;41.30;;;;;;1628787;71;796;-63
2021/04/07 04:19:58;;;;;;;;;;;22.40;41.40;;;;;;1637374;71;745;-63
2021/04/07 04:22:01;;;;;;;;;;;22.40;41.50;;;;;;1621147;71;1165;-62
2021/04/07 04:24:03;;;;;;;;;;;22.40;41.50;;;;;;1627701;71;736;-64
2021/04/07 04:26:05;;;;;;;;;;;22.40;41.40;;;;;;1626332;72;804;-66
2021/04/07 04:28:06;;;;;;;;;;;22.40;41.40;;;;;;1627096;71;821;-66
2021/04/07 04:30:09;;;;;;;;;;;22.40;41.30;;;;;;1622031;72;1220;-64
2021/04/07 04:32:11;;;;;;;;;;;22.30;41.20;;;;;;1627277;71;1935;-63
2021/04/07 04:34:12;;;;;;;;;;;22.40;41.30;;;;;;1628292;71;784;-64
2021/04/07 04:36:14;;;;;;;;;;;22.30;41.40;;;;;;1624156;71;807;-63
2021/04/07 04:38:19;;;;;;;;;;;22.40;41.50;;;;;;1623208;71;788;-62
2021/04/07 04:40:20;;;;;;;;;;;22.40;41.80;;;;;;1642359;71;1163;-63
2021/04/07 04:42:22;;;;;;;;;;;22.40;41.80;;;;;;1623075;71;768;-64
2021/04/07 04:44:24;;;;;;;;;;;22.40;41.50;;;;;;1634025;71;804;-64
2021/04/07 04:46:25;;;;;;;;;;;22.40;41.30;;;;;;1631984;71;760;-63
2021/04/07 04:48:27;;;;;;;;;;;22.30;41.50;;;;;;1624659;71;806;-63
2021/04/07 04:50:29;;;;;;;;;;;22.30;41.30;;;;;;1614103;71;1157;-64
2021/04/07 04:52:31;;;;;;;;;;;22.40;41.20;;;;;;1616456;71;1943;-63
2021/04/07 04:54:33;;;;;;;;;;;22.30;41.30;;;;;;1617797;71;1143;-65
2021/04/07 04:56:36;;;;;;;;;;;22.30;41.60;;;;;;1621534;71;1132;-62
2021/04/07 04:58:38;;;;;;;;;;;22.30;41.70;;;;;;1615689;71;951;-65
2021/04/07 05:00:40;;;;;;;;;;;22.30;41.80;;;;;;1625055;71;1189;-63
2021/04/07 05:02:42;;;;;;;;;;;22.30;41.60;;;;;;1623824;71;753;-65
2021/04/07 05:04:44;;;;;;;;;;;22.20;41.50;;;;;;1624101;71;769;-63
2021/04/07 05:06:46;;;;;;;;;;;22.30;41.60;;;;;;1627946;71;707;-63
2021/04/07 05:08:50;;;;;;;;;;;22.30;41.50;;;;;;1616394;72;790;-63
2021/04/07 05:10:52;;;;;;;;;;;22.20;41.50;;;;;;1620344;71;1172;-62
2021/04/07 05:12:54;;;;;;;;;;;22.30;41.70;;;;;;1630157;71;1943;-64
2021/04/07 05:14:57;;;;;;;;;;;22.30;41.60;;;;;;1641092;71;796;-64
2021/04/07 05:16:59;;;;;;;;;;;22.30;41.60;;;;;;1619275;71;802;-63
2021/04/07 05:19:01;;;;;;;;;;;22.30;41.70;;;;;;1624543;71;836;-63
2021/04/07 05:21:03;;;;;;;;;;;22.30;41.70;;;;;;1622086;71;1229;-63
2021/04/07 05:23:05;;;;;;;;;;;22.30;41.60;;;;;;1612772;71;782;-62
2021/04/07 05:25:07;;;;;;;;;;;22.30;41.80;;;;;;1612846;71;763;-63
2021/04/07 05:27:10;;;;;;;;;;;22.30;41.90;;;;;;1609481;71;738;-62
2021/04/07 05:29:12;;;;;;;;;;;22.30;41.60;;;;;;1611723;71;766;-62
2021/04/07 05:31:14;;;;;;;;;;;22.30;41.60;;;;;;1618238;71;1160;-62
2021/04/07 05:33:17;;;;;;;;;;;22.30;41.90;;;;;;1622256;71;1944;-66
2021/04/07 05:35:18;;;;;;;;;;;22.30;42.30;;;;;;1635133;71;754;-67
2021/04/07 05:37:20;;;;;;;;;;;22.20;42.40;;;;;;1622153;71;872;-66
2021/04/07 05:39:22;;;;;;;;;;;22.20;42.80;;;;;;1643952;71;779;-66
2021/04/07 05:41:24;;;;;;;;;;;22.00;42.60;;;;;;1637409;72;1144;-65
2021/04/07 05:43:26;;;;;;;;;;;22.10;42.70;;;;;;1642435;71;805;-66
2021/04/07 05:45:28;;;;;;;;;;;22.20;42.30;;;;;;1644506;71;748;-66
2021/04/07 05:47:30;;;;;;;;;;;22.30;42.10;;;;;;1639809;71;647;-66
2021/04/07 05:49:32;;;;;;;;;;;22.30;41.90;;;;;;1624591;71;1170;-68
2021/04/07 05:51:34;;;;;;;;;;;22.20;41.80;;;;;;1631389;71;1218;-67
2021/04/07 05:53:35;;;;;;;;;;;22.30;41.80;;;;;;1629625;72;1920;-65
2021/04/07 05:55:38;;;;;;;;;;;22.20;42.00;;;;;;1632775;71;735;-65
2021/04/07 05:57:39;;;;;;;;;;;22.20;42.10;;;;;;1619665;71;753;-64
2021/04/07 05:59:41;;;;;;;;;;;22.20;42.20;;;;;;1626747;71;914;-66
2021/04/07 06:01:43;;;;;;;;;;;22.10;42.20;;;;;;1645101;71;1239;-64
2021/04/07 06:03:45;;;;;;;;;;;22.10;42.20;;;;;;1631703;71;670;-63
2021/04/07 06:05:47;;;;;;;;;;;22.10;42.50;;;;;;1642109;71;800;-67
2021/04/07 06:07:50;;;;;;;;;;;22.00;42.50;;;;;;1634369;71;878;-64
2021/04/07 06:09:52;;;;;;;;;;;22.00;42.50;;;;;;1626600;71;803;-66
2021/04/07 06:11:53;;;;;;;;;;;22.00;42.40;;;;;;1633805;71;1933;-64
2021/04/07 06:13:55;;;;;;;;;;;22.10;42.30;;;;;;1634335;71;795;-64
2021/04/07 06:15:57;;;;;;;;;;;22.00;41.90;;;;;;1620000;71;777;-67
2021/04/07 06:18:02;;;;;;;;;;;22.00;41.80;;;;;;1629217;71;747;-65
2021/04/07 06:20:07;;;;;;;;;;;21.90;41.60;;;;;;1630642;71;816;-64
2021/04/07 06:22:09;;;;;;;;;;;22.00;41.60;;;;;;1648618;71;742;-64
2021/04/07 06:24:11;;;;;;;;;;;21.90;41.50;;;;;;1631008;71;776;-64
2021/04/07 06:26:13;;;;;;;;;;;22.00;41.10;;;;;;1631096;71;792;-64
2021/04/07 06:28:15;;;;;;;;;;;22.00;41.00;;;;;;1632469;71;795;-63
2021/04/07 06:30:18;;;;;;;;;;;21.90;41.00;;;;;;1635226;71;1173;-67
2021/04/07 06:32:20;;;;;;;;;;;22.00;41.00;;;;;;1635404;71;1933;-66
2021/04/07 06:34:21;;;;;;;;;;;22.00;41.30;;;;;;1641654;71;755;-67
2021/04/07 06:36:23;;;;;;;;;;;22.00;40.90;;;;;;1628900;71;755;-65
2021/04/07 06:38:26;;;;;;;;;;;22.00;41.00;;;;;;1631462;71;679;-68
2021/04/07 06:40:28;;;;;;;;;;;21.90;41.00;;;;;;1624117;71;1168;-66
2021/04/07 06:42:31;;;;;;;;;;;21.90;41.00;;;;;;1628285;71;751;-67
2021/04/07 06:44:34;;;;;;;;;;;22.00;41.00;;;;;;1619914;71;805;-65
2021/04/07 06:46:35;;;;;;;;;;;22.00;41.10;;;;;;1630269;71;743;-65
2021/04/07 06:48:37;;;;;;;;;;;22.00;41.10;;;;;;1629605;71;784;-65
2021/04/07 06:50:39;;;;;;;;;;;22.00;41.00;;;;;;1621718;71;1226;-65
2021/04/07 06:52:42;;;;;;;;;;;22.00;40.70;;;;;;1636505;71;1944;-65
2021/04/07 06:54:44;;;;;;;;;;;22.20;40.70;;;;;;1639676;71;755;-65
2021/04/07 06:56:46;;;;;;;;;;;22.10;40.70;;;;;;1635678;71;765;-65
2021/04/07 06:58:48;;;;;;;;;;;22.00;40.70;;;;;;1636769;71;765;-66
2021/04/07 07:00:50;;;;;;;;;;;22.10;41.00;;;;;;1633625;71;1153;-64
2021/04/07 07:02:58;;;;;;;;;;;22.10;41.00;;;;;;1617807;71;795;-67
2021/04/07 07:05:01;;;;;;;;;;;22.00;40.90;;;;;;1627326;71;751;-68
2021/04/07 07:07:03;;;;;;;;;;;22.20;40.90;;;;;;1620561;71;765;-66
2021/04/07 07:09:19;;;;;;;;;;;22.20;40.70;;;;;;1617374;71;761;-68
2021/04/07 07:11:21;;;;;;;;;;;22.20;40.60;;;;;;1629938;71;1164;-65
2021/04/07 07:13:24;;;;;;;;;;;22.30;40.70;;;;;;1617430;71;1938;-67
2021/04/07 07:15:26;;;;;;;;;;;22.30;40.60;;;;;;1611074;71;762;-68
2021/04/07 07:17:31;;;;;;;;;;;22.40;40.60;;;;;;1618381;71;735;-66
2021/04/07 07:19:33;;;;;;;;;;;22.40;40.40;;;;;;1619249;71;797;-67
2021/04/07 07:21:35;;;;;;;;;;;22.50;40.30;;;;;;1623864;71;1249;-66
2021/04/07 07:23:37;;;;;;;;;;;22.50;40.20;;;;;;1647209;71;816;-66
2021/04/07 07:25:39;;;;;;;;;;;22.60;40.10;;;;;;1630629;71;770;-65
2021/04/07 07:27:41;;;;;;;;;;;22.60;40.00;;;;;;1603824;73;762;-65
2021/04/07 07:29:45;;;;;;;;;;;22.60;39.90;;;;;;1609013;73;807;-66
2021/04/07 07:31:47;;;;;;;;;;;22.60;39.90;;;;;;1592514;74;1724;-63
2021/04/07 07:33:49;;;;;;;;;;;22.60;39.80;;;;;;1562149;75;1930;-64
2021/04/07 07:35:51;;;;;;;;;;;22.60;39.70;;;;;;1572504;74;736;-62
2021/04/07 07:37:55;;;;;;;;;;;22.60;39.70;;;;;;1565891;74;764;-66
2021/04/07 07:39:56;;;;;;;;;;;22.70;39.70;;;;;;1575759;74;1726;-66
2021/04/07 07:42:01;;;;;;;;;;;22.70;39.60;;;;;;1569642;74;1108;-65
2021/04/07 07:44:03;;;;;;;;;;;22.70;39.60;;;;;;1565626;74;1687;-66
2021/04/07 07:46:12;;;;;;;;;;;22.70;39.50;;;;;;1571276;74;818;-65
2021/04/07 07:48:17;;;;;;;;;;;22.60;39.40;;;;;;1571210;74;809;-66
2021/04/07 07:50:17;;;;;;;;;;;22.70;39.50;;;;;;1568953;74;1443;-65
2021/04/07 07:52:26;;;;;;;;;;;22.70;39.40;;;;;;1576931;74;1934;-67
2021/04/07 07:54:28;;;;;;;;;;;22.70;39.40;;;;;;1566214;74;772;-64
2021/04/07 07:56:36;;;;;;;;;;;22.70;39.40;;;;;;1571636;74;770;-67
2021/04/07 07:58:42;;;;;;;;;;;22.70;39.40;;;;;;1569423;74;714;-66
2021/04/07 08:00:44;;;;;;;;;;;22.90;39.40;;;;;;1565957;74;1192;-65
2021/04/07 08:02:45;;;;;;;;;;;22.90;39.10;;;;;;1583623;73;765;-66
2021/04/07 08:04:47;;;;;;;;;;;23.10;39.10;;;;;;1590238;74;653;-65
2021/04/07 08:06:49;;;;;;;;;;;23.20;38.90;;;;;;1580657;74;860;-65
2021/04/07 08:08:51;;;;;;;;;;;23.20;38.70;;;;;;1571045;74;788;-63
2021/04/07 08:10:55;;;;;;;;;;;23.30;38.60;;;;;;1592700;74;1174;-64
2021/04/07 08:12:56;;;;;;;;;;;23.40;38.50;;;;;;1589783;74;1939;-67
2021/04/07 08:14:58;;;;;;;;;;;23.40;38.40;;;;;;1588063;74;802;-65
2021/04/07 08:17:00;;;;;;;;;;;23.50;38.20;;;;;;1574495;74;693;-65
2021/04/07 08:19:02;;;;;;;;;;;23.60;38.10;;;;;;1567913;74;757;-66
2021/04/07 08:21:04;;;;;;;;;;;23.60;37.80;;;;;;1561192;75;1155;-63
2021/04/07 08:23:07;;;;;;;;;;;23.60;37.80;;;;;;1564295;74;729;-65
2021/04/07 08:25:09;;;;;;;;;;;23.50;37.80;;;;;;1581371;74;785;-66
2021/04/07 08:27:10;;;;;;;;;;;23.50;37.90;;;;;;1570474;74;812;-66
2021/04/07 08:29:12;;;;;;;;;;;23.50;38.00;;;;;;1584941;74;784;-65
2021/04/07 08:31:15;;;;;;;;;;;23.50;37.90;;;;;;1565538;74;1161;-66
2021/04/07 08:33:20;;;;;;;;;;;23.60;37.80;;;;;;1563940;74;1922;-65
2021/04/07 08:35:23;;;;;;;;;;;23.60;37.70;;;;;;1570976;74;803;-67
2021/04/07 08:37:25;;;;;;;;;;;23.60;37.60;;;;;;1575314;74;746;-65
2021/04/07 08:39:27;;;;;;;;;;;23.60;37.70;;;;;;1570961;74;767;-65
2021/04/07 08:41:29;;;;;;;;;;;23.60;37.70;;;;;;1572842;74;1163;-65
2021/04/07 08:43:31;;;;;;;;;;;23.60;37.70;;;;;;1580153;74;782;-66
2021/04/07 08:45:45;;;;;;;;;;;23.60;37.60;;;;;;1586306;72;751;-66
2021/04/07 08:47:52;;;;;;;;;;;23.50;37.60;;;;;;1578397;74;739;-65
2021/04/07 08:50:01;;;;;;;;;;;23.40;37.60;;;;;;1573015;74;830;-64
2021/04/07 08:52:16;;;;;;;;;;;23.50;37.80;;;;;;1557206;74;1346;-66
2021/04/07 08:54:18;;;;;;;;;;;23.50;37.70;;;;;;1563844;74;1931;-65
2021/04/07 08:56:27;;;;;;;;;;;23.50;37.60;;;;;;1565381;74;748;-66
2021/04/07 08:58:29;;;;;;;;;;;23.50;37.60;;;;;;1563198;74;656;-66
2021/04/07 09:00:33;;;;;;;;;;;23.50;37.40;;;;;;1565596;74;1255;-65
2021/04/07 09:02:36;;;;;;;;;;;23.50;37.40;;;;;;1555903;74;801;-66
2021/04/07 09:04:38;;;;;;;;;;;23.50;37.50;;;;;;1556918;74;1848;-66
2021/04/07 09:06:41;;;;;;;;;;;23.50;37.60;;;;;;1573163;74;762;-65
2021/04/07 09:08:45;;;;;;;;;;;23.40;37.40;;;;;;1579167;74;1057;-66
2021/04/07 09:10:47;;;;;;;;;;;23.30;37.30;;;;;;1568371;72;1755;-66
2021/04/07 09:12:50;;;;;;;;;;;23.40;37.40;;;;;;1571034;74;1935;-65
2021/04/07 09:14:54;;;;;;;;;;;23.40;37.40;;;;;;1576970;74;754;-63
2021/04/07 09:17:03;;;;;;;;;;;23.30;37.40;;;;;;1574832;74;814;-64
2021/04/07 09:19:17;;;;;;;;;;;23.40;37.30;;;;;;1565962;74;802;-65
2021/04/07 09:21:21;;;;;;;;;;;23.50;37.30;;;;;;1560264;74;1169;-65
2021/04/07 09:23:32;;;;;;;;;;;23.50;37.30;;;;;;1569049;74;767;-65
2021/04/07 09:25:34;;;;;;;;;;;23.60;37.10;;;;;;1569012;74;692;-66
2021/04/07 09:27:35;;;;;;;;;;;23.60;37.10;;;;;;1577134;74;785;-65
2021/04/07 09:29:38;;;;;;;;;;;23.60;37.00;;;;;;1569766;74;768;-65
2021/04/07 09:31:41;;;;;;;;;;;23.60;36.90;;;;;;1574433;74;1159;-65
2021/04/07 09:33:43;;;;;;;;;;;23.70;37.10;;;;;;1576225;74;1940;-66
2021/04/07 09:35:56;;;;;;;;;;;23.60;36.90;;;;;;1583654;74;740;-66
2021/04/07 09:37:59;;;;;;;;;;;23.70;37.00;;;;;;1575169;74;1845;-63
2021/04/07 09:40:00;;;;;;;;;;;23.70;36.80;;;;;;1571208;74;736;-66
2021/04/07 09:42:02;;;;;;;;;;;23.70;36.80;;;;;;1579044;74;1168;-64
2021/04/07 09:44:07;;;;;;;;;;;23.80;36.60;;;;;;1565819;75;746;-65
2021/04/07 09:46:09;;;;;;;;;;;23.80;36.50;;;;;;1578804;74;628;-64
2021/04/07 09:48:11;;;;;;;;;;;23.80;36.50;;;;;;1583015;74;763;-65
2021/04/07 09:50:13;;;;;;;;;;;23.80;36.50;;;;;;1581103;73;1170;-65
2021/04/07 09:52:15;;;;;;;;;;;23.80;36.40;;;;;;1577239;73;813;-65
2021/04/07 09:54:20;;;;;;;;;;;23.90;36.10;;;;;;1588005;74;1937;-65
2021/04/07 09:56:22;;;;;;;;;;;23.90;35.60;;;;;;1570186;74;787;-65
2021/04/07 09:58:24;;;;;;;;;;;23.90;35.20;;;;;;1571886;74;767;-65
2021/04/07 10:02:29;;;;;;;;;;;23.80;34.60;;;;;;1625940;72;535;-65
2021/04/07 10:04:32;;;;;;;;;;;23.80;34.50;;;;;;1624182;72;777;-64
2021/04/07 10:06:34;;;;;;;;;;;23.80;34.50;;;;;;1619958;72;794;-63
2021/04/07 10:08:36;;;;;;;;;;;23.80;34.20;;;;;;1620643;72;800;-62
2021/04/07 10:10:38;;;;;;;;;;;23.90;34.20;;;;;;1589603;73;1276;-64
2021/04/07 10:12:39;;;;;;;;;;;23.90;33.70;;;;;;1616369;72;709;-65
2021/04/07 10:14:51;;;;;;;;;;;23.90;32.90;;;;;;1587518;75;1931;-64
2021/04/07 10:16:53;;;;;;;;;;;23.80;32.30;;;;;;1589894;74;791;-64
2021/04/07 10:18:55;;;;;;;;;;;23.80;32.40;;;;;;1590312;75;766;-65
2021/04/07 10:20:57;;;;;;;;;;;23.70;32.60;;;;;;1587924;75;1164;-64
2021/04/07 10:22:58;;;;;;;;;;;23.80;32.80;;;;;;1590987;75;734;-65
2021/04/07 10:25:46;;;;;;;;;;;23.70;32.50;;;;;;1591151;75;804;-65
2021/04/07 10:27:04;;;;;;;;;;;23.80;32.50;;;;;;1592190;73;1508;-66
2021/04/07 10:29:06;;;;;;;;;;;23.60;32.10;;;;;;1583877;75;776;-65
2021/04/07 10:31:09;;;;;;;;;;;23.60;32.00;;;;;;1591543;74;1181;-65
2021/04/07 10:33:11;;;;;;;;;;;23.50;32.10;;;;;;1590173;75;804;-65
2021/04/07 10:35:31;;;;;;;;;;;23.60;32.00;;;;;;1585125;74;1934;-67
2021/04/07 10:37:32;;;;;;;;;;;23.60;32.00;;;;;;1591902;75;756;-64
2021/04/07 10:39:36;;;;;;;;;;;23.60;31.40;;;;;;1583237;74;820;-65
2021/04/07 10:41:38;;;;;;;;;;;23.50;31.90;;;;;;1586635;75;1135;-64
2021/04/07 10:43:42;;;;;;;;;;;23.50;32.20;;;;;;1587372;75;749;-65
2021/04/07 10:45:43;;;;;;;;;;;23.40;32.50;;;;;;1586591;74;1582;-65
2021/04/07 10:47:45;;;;;;;;;;;23.40;32.80;;;;;;1584148;74;651;-65
2021/04/07 10:49:56;;;;;;;;;;;23.50;33.20;;;;;;1582678;75;815;-66
2021/04/07 10:51:59;;;;;;;;;;;23.40;33.20;;;;;;1588977;75;1160;-64
2021/04/07 10:54:09;;;;;;;;;;;23.40;33.40;;;;;;1603466;72;684;-59
2021/04/07 10:56:17;;;;;;;;;;;23.30;33.70;;;;;;1586026;74;1699;-56
2021/04/07 10:58:20;;;;;;;;;;;23.20;33.80;;;;;;1574258;74;1202;-59
2021/04/07 11:00:32;;;;;;;;;;;23.20;33.90;;;;;;1556841;74;1785;-59
2021/04/07 11:02:41;;;;;;;;;;;23.30;34.00;;;;;;1564094;74;715;-60
2021/04/07 11:04:43;;;;;;;;;;;23.30;34.10;;;;;;1555808;74;744;-56
2021/04/07 11:06:45;;;;;;;;;;;23.30;34.10;;;;;;1557843;74;813;-60
2021/04/07 11:08:47;;;;;;;;;;;23.30;34.20;;;;;;1564180;74;1173;-55
2021/04/07 11:10:50;;;;;;;;;;;23.30;34.20;;;;;;1554333;74;629;-57
2021/04/07 11:12:52;;;;;;;;;;;23.40;34.20;;;;;;1558095;74;1923;-59
2021/04/07 11:14:53;;;;;;;;;;;23.30;34.30;;;;;;1552690;74;954;-56
2021/04/07 11:16:59;;;;;;;;;;;23.30;34.30;;;;;;1552341;74;688;-56
2021/04/07 11:19:01;;;;;;;;;;;23.40;34.40;;;;;;1553121;74;1130;-60
2021/04/07 11:21:03;;;;;;;;;;;23.40;34.50;;;;;;1558966;74;837;-58
2021/04/07 11:23:05;;;;;;;;;;;23.40;34.60;;;;;;1555002;74;730;-61
2021/04/07 11:25:07;;;;;;;;;;;23.30;34.60;;;;;;1563362;75;819;-60
2021/04/07 11:27:09;;;;;;;;;;;23.30;34.70;;;;;;1554330;74;805;-59
2021/04/07 11:29:11;;;;;;;;;;;23.30;34.60;;;;;;1562234;75;1072;-61
2021/04/07 11:31:19;;;;;;;;;;;23.30;34.70;;;;;;1558777;74;738;-60
2021/04/07 11:33:16;;;;;;;;;;;23.30;34.70;;;;;;1559640;74;1938;-56
2021/04/07 11:35:26;;;;;;;;;;;23.30;34.60;;;;;;1559666;74;694;-57
2021/04/07 11:37:44;;;;;;;;;;;23.30;34.70;;;;;;1558231;74;1738;-59
2021/04/07 11:39:53;;;;;;;;;;;23.40;34.60;;;;;;1560443;74;1690;-55
2021/04/07 11:46:06;;;;;;;;;;;23.50;34.50;;;;;;1556157;74;884;-57
2021/04/07 11:48:09;;;;;;;;;;;23.50;34.40;;;;;;1564624;74;727;-54
2021/04/07 11:50:11;;;;;;;;;;;23.60;34.20;;;;;;1562807;74;954;-58
2021/04/07 11:52:14;;;;;;;;;;;23.60;34.20;;;;;;1558445;74;749;-57
2021/04/07 11:54:16;;;;;;;;;;;23.70;34.20;;;;;;1542791;76;1918;-54
2021/04/07 11:56:17;;;;;;;;;;;23.60;34.10;;;;;;1525493;76;761;-55
2021/04/07 11:58:19;;;;;;;;;;;23.60;34.40;;;;;;1534575;76;1178;-59
2021/04/07 12:00:22;;;;;;;;;;;23.50;34.50;;;;;;1524818;76;738;-59
2021/04/07 12:02:24;;;;;;;;;;;23.50;34.70;;;;;;1514392;76;785;-56
2021/04/07 12:04:28;;;;;;;;;;;23.40;34.80;;;;;;1523716;76;779;-58
2021/04/07 12:06:29;;;;;;;;;;;23.40;34.90;;;;;;1511328;76;1912;-57
2021/04/07 12:08:31;;;;;;;;;;;23.40;35.00;;;;;;1521388;77;1142;-56
2021/04/07 12:10:33;;;;;;;;;;;23.40;35.20;;;;;;1523266;77;776;-56
2021/04/07 12:12:35;;;;;;;;;;;23.40;35.30;;;;;;1523504;76;1944;-54
2021/04/07 12:14:37;;;;;;;;;;;23.30;35.40;;;;;;1530378;76;795;-54
2021/04/07 12:16:39;;;;;;;;;;;23.40;35.50;;;;;;1522215;76;753;-59
2021/04/07 12:18:41;;;;;;;;;;;23.30;35.60;;;;;;1526268;76;1106;-59